Карточка аэропорта URKK

Внимание!
Информация на этой странице в стадии наполнения.
Если вы не увидели какой-то информации, или заметили неточность - пожалуйста сообщите нам!
Спасибо!
Команда RU-STAFF
Название аэропортаПашковский
Название аэропорта (англ.)Pashkovskiy
Превышение120 ft. (36.6 m.)
Координаты45°2.0820000000001', 39°10.218'
Высота перехода4000 ft
Эшелон переходаFL60 (QNH >= 977); FL70 (QNH < 977)
Коды ответчика1030-1037
Зона ОрВДРостов-на-Дону РПИ (URRV)
Данные METARURKK 251100Z 28007MPS CAVOK 29/14 Q1008 R23L/CLRD70 TEMPO 3000 -TSRA BKN020CB RMK QFE753
Проноз погоды (TAF)URKK 250755Z 2509/2609 27003G08MPS 9999 SCT030CB TEMPO 2509/2518 32006G14MPS PROB40 TEMPO 2509/2518 -TSRA FM251800 35003G08MPS 9999 SCT020CB TEMPO 2518/2606 03003G08MPS 6000 -SHRA BKN020CB PROB40 2518/2606 -TSRA
NOTAMshow/hide NOTAM
AWOS   TABLE

Информация о ВПП

ВПП Длина ВПП (м.) Покрытие Курс ВПП Частота ILS
05L2200Асфальтобетон46 
23R2200Асфальтобетон226 
05R3000Железобетон46 
23L3000Железобетон226 

Диспетчерские позиции

Позывной Наименование органа УВД Частота
URKK_TWRКраснодар-Вышка118.2
URKK_R_APPКраснодар-Круг121.3
URKK_APPКраснодар-Подход129.6
URKK_GNDКраснодар-Руление119.0



Спутниковое изображение